createdAt,value
2019-05-10T00:04:17.230Z,6.70
2019-05-10T00:09:21.399Z,6.00
2019-05-10T00:14:48.300Z,5.50
2019-05-10T00:19:53.300Z,5.07
2019-05-10T00:25:04.787Z,4.73
2019-05-10T00:30:05.987Z,4.23
2019-05-10T00:35:11.332Z,4.03
2019-05-10T00:40:16.159Z,3.90
2019-05-10T00:45:21.319Z,4.13
2019-05-10T00:50:26.286Z,4.37
2019-05-10T00:55:31.300Z,3.60
2019-05-10T01:00:37.010Z,3.37
2019-05-10T01:05:42.063Z,3.53
2019-05-10T01:10:49.396Z,3.20
2019-05-10T01:15:55.235Z,3.03
2019-05-10T01:21:00.128Z,2.10
2019-05-10T01:26:05.376Z,2.30
2019-05-10T01:31:10.553Z,2.27
2019-05-10T01:36:16.620Z,2.10
2019-05-10T01:41:21.437Z,2.10
2019-05-10T01:46:26.348Z,1.80
2019-05-10T01:51:31.768Z,1.60
2019-05-10T01:56:36.894Z,1.77
2019-05-10T02:01:42.108Z,1.90
2019-05-10T02:06:47.750Z,1.80
2019-05-10T02:11:52.672Z,1.70
2019-05-10T02:16:57.727Z,1.70
2019-05-10T02:22:02.975Z,1.70
2019-05-10T02:27:08.196Z,2.00
2019-05-10T02:32:12.969Z,1.73
2019-05-10T02:37:17.821Z,1.73
2019-05-10T02:42:22.576Z,1.70
2019-05-10T02:47:27.407Z,1.83
2019-05-10T02:52:44.056Z,2.10
2019-05-10T02:57:49.620Z,1.90
2019-05-10T03:02:56.065Z,1.80
2019-05-10T03:08:02.536Z,1.90
2019-05-10T03:13:11.166Z,1.73
2019-05-10T03:18:16.917Z,1.63
2019-05-10T03:23:22.535Z,1.80
2019-05-10T03:28:27.530Z,2.30
2019-05-10T03:33:32.773Z,1.40
2019-05-10T03:38:38.076Z,1.87
2019-05-10T03:43:43.226Z,1.80
2019-05-10T03:48:47.996Z,1.50
2019-05-10T03:53:53.233Z,2.00
2019-05-10T03:58:58.442Z,1.67
2019-05-10T04:04:03.432Z,1.83
2019-05-10T04:09:08.703Z,1.73
2019-05-10T04:14:13.810Z,1.97
2019-05-10T04:19:21.504Z,1.97
2019-05-10T04:24:27.436Z,1.97
2019-05-10T04:29:33.655Z,1.73
2019-05-10T04:34:38.943Z,1.50
2019-05-10T04:39:44.511Z,2.13
2019-05-10T04:44:53.149Z,1.70
2019-05-10T04:49:57.998Z,2.00
2019-05-10T04:55:02.904Z,2.00
2019-05-10T05:00:09.643Z,1.53
2019-05-10T05:05:15.101Z,1.73
2019-05-10T05:10:20.743Z,2.00
2019-05-10T05:15:25.930Z,2.10
2019-05-10T05:20:30.787Z,1.90
2019-05-10T05:25:40.281Z,1.50
2019-05-10T05:30:44.217Z,1.90
2019-05-10T05:35:49.531Z,3.17
2019-05-10T05:40:56.360Z,2.20
2019-05-10T05:46:02.083Z,2.07
2019-05-10T05:51:07.328Z,2.20
2019-05-10T05:56:14.635Z,2.57
2019-05-10T06:01:26.405Z,2.27
2019-05-10T06:06:28.584Z,1.93
2019-05-10T06:11:35.990Z,1.90
2019-05-10T06:16:45.211Z,1.90
2019-05-10T06:21:48.004Z,2.90
2019-05-10T06:26:53.333Z,1.97
2019-05-10T06:31:58.886Z,2.00
2019-05-10T06:37:04.084Z,2.00
2019-05-10T06:42:13.812Z,2.27
2019-05-10T06:47:21.659Z,2.30
2019-05-10T06:52:28.060Z,1.97
2019-05-10T06:57:32.061Z,1.55
2019-05-10T07:02:38.775Z,1.83
2019-05-10T07:07:45.548Z,1.50
2019-05-10T07:12:51.331Z,1.17
2019-05-10T07:17:56.274Z,1.37
2019-05-10T07:23:06.002Z,1.23
2019-05-10T07:28:09.504Z,1.10
2019-05-10T07:33:18.047Z,1.30
2019-05-10T07:38:30.705Z,1.57
2019-05-10T07:43:30.815Z,1.20
2019-05-10T07:48:41.133Z,1.42
2019-05-10T07:53:45.786Z,1.00
2019-05-10T07:58:51.422Z,1.15
2019-05-10T08:03:59.173Z,1.27
2019-05-10T08:09:07.019Z,0.95
2019-05-10T08:14:13.620Z,0.82
2019-05-10T08:19:18.380Z,1.00
2019-05-10T08:24:23.272Z,1.50
2019-05-10T08:29:28.095Z,1.63
2019-05-10T08:34:39.087Z,1.10
2019-05-10T08:39:45.685Z,1.30
2019-05-10T08:44:54.110Z,1.47
2019-05-10T08:50:09.478Z,1.25
2019-05-10T08:55:02.724Z,1.57
2019-05-10T09:00:09.822Z,1.22
2019-05-10T09:05:14.876Z,1.32
2019-05-10T09:10:22.111Z,1.40
2019-05-10T09:15:27.134Z,1.42
2019-05-10T09:20:34.522Z,1.57
2019-05-10T09:25:42.573Z,1.30
2019-05-10T09:30:57.472Z,2.83
2019-05-10T09:35:55.179Z,1.30
2019-05-10T09:41:02.593Z,1.30
2019-05-10T09:46:08.354Z,1.30
2019-05-10T09:51:30.114Z,1.35
2019-05-10T09:56:42.108Z,1.35
2019-05-10T10:01:40.923Z,1.22
2019-05-10T10:06:51.020Z,1.35
2019-05-10T10:11:59.121Z,1.55
2019-05-10T10:17:03.436Z,2.02
2019-05-10T10:22:11.014Z,1.15
2019-05-10T10:27:17.476Z,1.37
2019-05-10T10:32:24.644Z,1.37
2019-05-10T10:37:31.325Z,1.25
2019-05-10T10:42:38.092Z,1.20
2019-05-10T10:47:42.902Z,1.60
2019-05-10T10:52:48.010Z,1.30
2019-05-10T10:57:52.865Z,1.35
2019-05-10T11:02:58.089Z,1.85
2019-05-10T11:08:03.437Z,1.30
2019-05-10T11:13:17.874Z,1.20
2019-05-10T11:18:15.078Z,1.30
2019-05-10T11:23:24.575Z,1.37
2019-05-10T11:28:32.480Z,1.27
2019-05-10T11:33:33.811Z,1.30
2019-05-10T11:38:41.745Z,1.45
2019-05-10T11:43:45.783Z,1.15
2019-05-10T11:48:51.518Z,1.72
2019-05-10T11:53:59.631Z,1.87
2019-05-10T11:59:05.957Z,1.77
2019-05-10T12:04:22.163Z,1.87
2019-05-10T12:09:18.021Z,1.40
2019-05-10T12:14:22.871Z,1.80
2019-05-10T12:19:36.868Z,1.60
2019-05-10T20:11:41.730Z,2.40
2019-05-10T20:16:52.895Z,2.53
2019-05-10T20:21:54.149Z,2.33
2019-05-10T20:26:59.526Z,2.70
2019-05-10T20:32:04.712Z,2.53
2019-05-10T20:37:09.751Z,2.43
2019-05-10T20:42:14.928Z,2.70
2019-05-10T20:47:19.989Z,2.80
2019-05-10T20:52:24.970Z,2.63
2019-05-10T20:57:30.290Z,3.10
2019-05-10T21:02:35.262Z,2.63
2019-05-10T21:07:40.628Z,2.93
2019-05-10T21:12:45.793Z,2.47
2019-05-10T21:17:50.750Z,3.00
2019-05-10T21:22:57.904Z,2.80
2019-05-10T21:28:02.675Z,2.80
2019-05-10T21:33:07.828Z,3.13
2019-05-10T21:38:12.747Z,2.87
2019-05-10T21:43:18.061Z,2.83
2019-05-10T21:48:23.224Z,2.80
2019-05-10T21:53:28.434Z,3.50
2019-05-10T21:58:33.914Z,2.90
2019-05-10T22:03:39.443Z,3.00
2019-05-10T22:08:49.450Z,3.00
2019-05-10T22:13:51.591Z,2.80
2019-05-10T22:19:01.281Z,3.00
2019-05-10T22:24:07.850Z,3.03
2019-05-10T22:29:12.663Z,2.80
2019-05-10T22:34:17.972Z,3.30
2019-05-10T22:39:22.859Z,2.63
2019-05-10T22:44:27.699Z,2.73
2019-05-10T22:49:32.530Z,3.00
2019-05-10T22:54:37.900Z,3.20
2019-05-10T22:59:43.171Z,3.50
2019-05-10T23:04:49.032Z,3.30
2019-05-10T23:09:54.371Z,3.13
2019-05-10T23:14:59.315Z,3.53
2019-05-10T23:20:04.695Z,3.20
2019-05-10T23:25:09.618Z,3.00
2019-05-10T23:30:15.012Z,3.10
2019-05-10T23:35:20.580Z,3.07
2019-05-10T23:40:25.927Z,3.10
2019-05-10T23:45:30.786Z,2.97
2019-05-10T23:50:36.056Z,2.93
2019-05-10T23:55:41.174Z,3.40
